Latest Weather Observations for Lismore Airport

IDN60801

Issued at 3:43 am EDT Tuesday 19 January 2021 (issued every 10 minutes, with the page automatically refreshed every 10 minutes)

About weather observations | Map of weather stations | Latest weather observations for NSW | Other Formats
Station Details ID: 058214 Name: LISMORE AIRPORT AWS Lat: -28.83 Lon: 153.26 Height: 9.21 m
Data from the previous 72 hours. | See also: Recent months at Lismore Airport
Date/Time
EDT
Temp
°C
App
Temp
°C
Dew
Point
°C
Rel
Hum
%
Delta-T
°C
Wind Press
QNH
hPa
Press
MSL
hPa
Rain since
9am
mm
Dir  Spd
km/h
Gust
km/h
Spd
kts
Gust
kts
19/03:30am 19.2 20.0 18.2 94 0.6 NNE 11 13 6 7 1011.6 1011.6 23.0
19/03:00am 19.2 20.9 18.0 93 0.7 S 6 9 3 5 1012.5 1012.5 23.0
19/02:30am 19.2 20.6 17.9 92 0.8 E 7 13 4 7 1012.5 1012.5 23.0
19/02:00am 19.3 20.9 17.8 91 0.9 NE 6 9 3 5 1013.2 1013.2 23.0
19/01:30am 19.5 21.7 17.5 88 1.2 W 2 6 1 3 1013.8 1013.8 23.0
19/01:00am 19.5 21.1 17.8 90 1.0 W 6 11 3 6 1012.9 1012.9 23.0
19/12:30am 19.7 19.4 18.2 91 0.9 NNW 17 24 9 13 1013.7 1013.7 22.8
19/12:00am 19.8 18.6 18.5 92 0.8 NNE 22 30 12 16 1012.7 1012.7 22.8
 
Date/Time
EDT
Temp
°C
App
Temp
°C
Dew
Point
°C
Rel
Hum
%
Delta-T
°C
Wind Press
QNH
hPa
Press
MSL
hPa
Rain since
9am
mm
Dir  Spd
km/h
Gust
km/h
Spd
kts
Gust
kts
18/11:30pm 20.0 20.8 19.0 94 0.6 N 13 19 7 10 1014.5 1014.5 22.4
18/11:00pm 20.2 19.8 19.0 93 0.8 NNW 19 24 10 13 1015.3 1015.3 22.0
18/10:30pm 20.6 22.0 19.6 94 0.6 N 11 15 6 8 1015.0 1015.0 21.6
18/10:00pm 20.6 21.6 19.4 93 0.8 N 13 17 7 9 1015.0 1015.0 21.2
18/09:30pm 20.9 21.2 19.7 93 0.8 NNW 17 20 9 11 1015.4 1015.4 21.0
18/09:00pm 20.9 22.1 19.9 94 0.6 NNW 13 15 7 8 1015.1 1015.1 20.8
18/08:30pm 20.9 24.5 19.7 93 0.8 CALM 0 0 0 0 1014.2 1014.2 20.8
18/08:00pm 21.0 24.6 19.8 93 0.8 CALM 0 0 0 0 1014.3 1014.3 20.2
18/07:30pm 21.2 23.7 20.2 94 0.6 NNW 7 9 4 5 1014.3 1014.3 20.0
18/07:00pm 21.4 22.9 20.6 95 0.5 N 13 15 7 8 1013.5 1013.5 19.6
18/06:30pm 21.4 22.5 20.4 94 0.6 N 15 19 8 10 1013.4 1013.4 17.6
18/06:00pm 21.6 22.3 20.4 93 0.8 N 17 20 9 11 1013.1 1013.1 16.4
18/05:30pm 22.1 24.7 20.4 90 1.1 WNW 7 9 4 5 1012.2 1012.2 15.8
18/05:00pm 22.3 25.6 20.8 91 1.0 W 4 6 2 3 1012.1 1012.1 15.2
18/04:40pm 22.3 25.2 20.6 90 1.1 W 6 9 3 5 1012.7 1012.7 14.4
18/04:30pm 22.3 25.3 20.8 91 1.0 WSW 6 9 3 5 1012.8 1012.8 14.0
18/04:09pm 22.2 24.8 20.5 90 1.1 WNW 7 13 4 7 1013.2 1013.2 11.8
18/04:00pm 22.0 23.7 20.1 89 1.2 WNW 11 15 6 8 1013.2 1013.2 10.8
18/03:45pm 22.7 24.5 21.2 91 1.0 NNW 13 19 7 10 1013.4 1013.4 10.0
18/03:35pm 23.3 26.2 21.7 91 1.1 NNW 9 13 5 7 1013.3 1013.3 9.4
18/03:30pm 23.4 26.3 21.7 90 1.1 NW 9 13 5 7 1013.4 1013.4 9.0
18/03:00pm 23.6 25.9 21.3 87 1.5 ENE 11 19 6 10 1012.8 1012.8 6.2
18/02:35pm 24.4 26.7 21.3 83 2.0 E 11 17 6 9 1012.4 1012.4 1.6
18/02:33pm 24.3 26.6 21.4 84 1.9 E 11 17 6 9 1012.4 1012.4 1.2
18/02:30pm 24.4 26.3 21.3 83 2.0 ESE 13 19 7 10 1012.3 1012.3 0.6
18/02:00pm 25.3 24.8 19.9 72 3.5 NE 22 32 12 17 1012.2 1012.2 0.0
18/01:30pm 27.3 27.4 20.4 66 4.5 ENE 20 30 11 16 1012.4 1012.4 0.0
18/01:00pm 28.2 29.0 20.7 63 5.0 NE 17 30 9 16 1012.7 1012.7 0.0
18/12:30pm 28.7 30.3 22.2 68 4.4 ENE 17 22 9 12 1013.1 1013.1 0.0
18/12:00pm 25.8 27.1 22.3 81 2.3 ENE 19 26 10 14 1013.6 1013.6 0.0
18/11:30am 29.0 30.8 21.2 62 5.2 NE 13 20 7 11 1013.7 1013.7 0.0
18/11:00am 28.3 30.6 20.6 63 5.1 N 9 15 5 8 1014.3 1014.3 0.0
18/10:30am 26.7 28.1 20.3 68 4.2 NNE 13 19 7 10 1014.4 1014.4 0.0
18/10:00am 27.6 30.3 20.2 64 4.8 NE 6 15 3 8 1014.6 1014.6 0.0
18/09:30am 26.4 29.0 19.3 65 4.6 NNE 4 9 2 5 1014.8 1014.8 0.0
18/09:00am 25.0 27.0 18.7 68 4.0 SSW 6 11 3 6 1014.8 1014.8 0.0
18/08:30am 22.8 25.9 18.6 77 2.6 CALM 0 0 0 0 1014.8 1014.8 0.0
18/08:00am 21.9 23.8 18.5 81 2.1 NNE 6 7 3 4 1014.6 1014.6 0.0
18/07:30am 20.8 22.0 18.2 85 1.6 N 9 11 5 6 1014.6 1014.6 0.0
18/07:29am 20.8 22.0 18.2 85 1.6 NNW 9 11 5 6 1014.6 1014.6 0.0
18/07:10am 20.8 22.6 18.4 86 1.5 NNW 6 9 3 5 1014.4 1014.4 0.0
18/07:00am 20.7 22.6 18.5 87 1.4 NNW 6 9 3 5 1014.3 1014.3 0.0
18/06:30am 20.2 21.7 18.1 88 1.3 N 7 9 4 5 1013.9 1013.9 0.0
18/06:00am 19.7 21.8 18.0 90 1.0 N 4 6 2 3 1013.6 1013.6 0.0
18/05:30am 19.8 21.1 17.6 87 1.3 N 7 7 4 4 1013.4 1013.4 0.0
18/05:00am 19.7 21.2 18.0 90 1.0 N 7 9 4 5 1013.3 1013.3 0.0
18/04:30am 19.6 20.9 17.6 88 1.2 N 7 9 4 5 1012.9 1012.9 0.0
18/04:00am 20.0 21.3 17.6 86 1.5 NNW 7 9 4 5 1012.6 1012.6 0.0
18/03:30am 20.2 23.1 18.3 89 1.2 CALM 0 2 0 1 1012.7 1012.7 0.0
18/03:00am 19.7 21.2 17.7 88 1.2 NNW 6 7 3 4 1012.9 1012.9 0.0
18/02:30am 19.5 20.1 17.6 89 1.2 NNW 11 11 6 6 1013.1 1013.1 0.0
18/02:00am 18.8 19.4 16.9 89 1.1 N 9 13 5 7 1013.2 1013.2 0.0
18/01:30am 19.6 20.5 17.6 88 1.2 NNW 9 13 5 7 1013.4 1013.4 0.0
18/01:00am 19.8 20.3 17.4 86 1.5 NNW 11 13 6 7 1013.5 1013.5 0.0
18/12:30am 20.2 20.7 17.4 84 1.7 N 11 11 6 6 1013.5 1013.5 0.0
18/12:00am 20.6 21.2 17.6 83 1.8 N 11 13 6 7 1013.7 1013.7 0.0
 
Date/Time
EDT
Temp
°C
App
Temp
°C
Dew
Point
°C
Rel
Hum
%
Delta-T
°C
Wind Press
QNH
hPa
Press
MSL
hPa
Rain since
9am
mm
Dir  Spd
km/h
Gust
km/h
Spd
kts
Gust
kts
17/11:30pm 20.9 21.6 17.1 79 2.3 N 9 13 5 7 1014.0 1014.0 0.0
17/11:00pm 22.4 22.4 17.3 73 3.1 NNE 13 19 7 10 1013.7 1013.7 0.0
17/10:30pm 23.2 22.5 17.4 70 3.6 NNE 17 28 9 15 1013.7 1013.7 0.0
17/10:00pm 23.0 22.5 17.0 69 3.7 NE 15 22 8 12 1013.5 1013.5 0.0
17/09:30pm 23.2 21.9 16.7 67 4.0 NE 19 24 10 13 1013.1 1013.1 0.0
17/09:00pm 23.4 21.5 16.7 66 4.1 NE 22 32 12 17 1013.0 1013.0 0.0
17/08:30pm 23.8 22.2 16.6 64 4.4 NE 20 28 11 15 1012.8 1012.8 0.0
17/08:00pm 24.0 22.4 16.0 61 4.9 NE 19 32 10 17 1012.3 1012.3 0.0
17/07:30pm 24.9 22.6 14.7 53 6.1 NE 20 28 11 15 1012.0 1012.0 0.0
17/07:00pm 26.0 23.2 12.5 43 7.8 NE 19 28 10 15 1011.7 1011.7 0.0
17/06:30pm 26.6 24.0 15.0 49 7.0 NE 22 30 12 16 1011.4 1011.4 0.0
17/06:00pm 26.4 24.0 15.4 50 6.7 ENE 22 32 12 17 1011.2 1011.2 0.0
17/05:30pm 27.4 24.3 15.7 48 7.2 ENE 26 37 14 20 1011.2 1011.2 0.0
17/05:00pm 28.0 25.6 16.3 49 7.2 ENE 24 33 13 18 1011.3 1011.3 0.0
17/04:30pm 27.5 25.2 15.8 48 7.2 NE 22 35 12 19 1011.4 1011.4 0.0
17/04:00pm 28.5 26.2 15.8 46 7.8 NE 22 33 12 18 1011.6 1011.6 0.0
17/03:30pm 28.6 26.5 16.2 47 7.7 NE 22 30 12 16 1011.7 1011.7 0.0
17/03:00pm 29.3 28.4 16.8 47 7.8 ENE 17 26 9 14 1012.1 1012.1 0.0
17/02:30pm 29.5 30.0 18.3 51 7.2 N 13 20 7 11 1012.4 1012.4 0.0
17/02:00pm 28.6 29.6 17.8 52 6.9 NE 9 19 5 10 1012.6 1012.6 0.0
17/01:30pm 29.0 30.3 19.3 55 6.3 NNE 11 17 6 9 1012.8 1012.8 0.0
17/01:00pm 28.7 29.6 17.6 51 7.0 N 9 17 5 9 1013.0 1013.0 0.0
17/12:30pm 28.2 29.1 16.5 49 7.3 E 7 15 4 8 1013.3 1013.3 0.0
17/12:00pm 28.4 29.3 18.5 55 6.3 E 11 15 6 8 1013.7 1013.7 0.0
17/11:30am 27.9 28.2 15.9 48 7.4 ENE 9 19 5 10 1013.7 1013.7 0.0
17/11:00am 27.1 27.0 16.1 51 6.8 N 11 17 6 9 1013.9 1013.9 0.0
17/10:30am 26.8 27.5 16.1 52 6.6 ESE 7 13 4 7 1013.9 1013.9 0.0
17/10:00am 26.3 26.8 15.0 49 6.8 ESE 6 13 3 7 1014.0 1014.0 0.0
17/09:30am 24.8 26.8 17.0 62 4.8 N 2 7 1 4 1014.0 1014.0 0.0
17/09:00am 24.1 25.4 16.1 61 4.9 E 4 7 2 4 1014.1 1014.1 0.0
17/08:30am 23.2 25.0 16.5 66 4.1 NNW 2 6 1 3 1014.1 1014.1 0.0
17/08:00am 20.4 20.9 16.6 79 2.3 NNW 9 11 5 6 1014.0 1014.0 0.0
17/07:30am 18.7 20.6 16.7 88 1.2 NNW 2 6 1 3 1013.7 1013.7 0.0
17/07:00am 17.5 19.7 16.5 94 0.6 CALM 0 0 0 0 1013.8 1013.8 0.0
17/06:30am 16.1 17.2 14.6 91 0.9 N 2 7 1 4 1013.6 1013.6 0.0
17/06:00am 16.9 17.5 15.8 93 0.6 NNE 7 9 4 5 1013.2 1013.2 0.0
17/05:30am 16.2 16.7 14.9 92 0.7 N 6 7 3 4 1012.8 1012.8 0.0
17/05:00am 16.9 17.6 15.6 92 0.8 N 6 7 3 4 1012.5 1012.5 0.0
17/04:30am 17.3 19.2 15.8 91 0.9 CALM 0 0 0 0 1012.2 1012.2 0.0
17/04:00am 17.3 19.1 15.5 89 1.1 CALM 0 0 0 0 1012.1 1012.1 0.0
17/03:30am 18.5 20.7 16.5 88 1.2 CALM 0 0 0 0 1012.1 1012.1 0.0
17/03:00am 18.8 21.2 16.9 89 1.1 CALM 0 0 0 0 1012.2 1012.2 0.0
17/02:30am 18.3 20.3 16.1 87 1.3 CALM 0 0 0 0 1012.3 1012.3 0.0
17/02:00am 18.5 20.6 16.3 87 1.3 CALM 0 0 0 0 1012.3 1012.3 0.0
17/01:30am 19.0 20.3 16.2 84 1.7 SSE 4 6 2 3 1012.5 1012.5 0.0
17/01:00am 19.3 19.9 16.7 85 1.6 SSE 9 9 5 5 1012.4 1012.4 0.0
17/12:30am 19.4 20.1 16.2 82 1.9 S 7 9 4 5 1012.6 1012.6 0.0
17/12:00am 19.7 20.7 16.3 81 2.0 S 6 6 3 3 1012.6 1012.6 0.0
 
Date/Time
EDT
Temp
°C
App
Temp
°C
Dew
Point
°C
Rel
Hum
%
Delta-T
°C
Wind Press
QNH
hPa
Press
MSL
hPa
Rain since
9am
mm
Dir  Spd
km/h
Gust
km/h
Spd
kts
Gust
kts
16/11:30pm 19.9 20.8 16.0 78 2.3 S 6 7 3 4 1012.8 1012.8 0.0
16/11:00pm 20.4 21.6 15.8 75 2.7 SW 4 9 2 5 1012.6 1012.6 0.0
16/10:30pm 22.2 22.9 15.5 66 4.0 ESE 6 7 3 4 1012.6 1012.6 0.0
16/10:00pm 22.5 23.1 15.4 64 4.2 ESE 6 9 3 5 1012.4 1012.4 0.0
16/09:30pm 23.1 23.0 14.9 60 4.9 ESE 9 13 5 7 1012.2 1012.2 0.0
16/09:00pm 23.1 23.7 15.4 62 4.6 E 6 9 3 5 1011.7 1011.7 0.0
16/08:30pm 23.5 23.4 15.0 59 5.1 ESE 9 13 5 7 1011.2 1011.2 0.0
16/08:00pm 23.7 23.5 15.7 61 4.8 ESE 11 17 6 9 1010.6 1010.6 0.0
16/07:30pm 24.1 22.6 15.3 58 5.3 ESE 17 24 9 13 1010.0 1010.0 0.0
16/07:00pm 24.6 22.9 15.8 58 5.3 ESE 19 28 10 15 1009.7 1009.7 0.0
16/06:53pm 24.6 23.2 15.5 57 5.5 ESE 17 26 9 14 1009.5 1009.5 0.0
16/06:39pm 24.9 23.6 15.8 57 5.5 ESE 17 24 9 13 1009.2 1009.2 0.0
16/06:30pm 25.0 23.6 15.6 56 5.7 ESE 17 28 9 15 1009.0 1009.0 0.0
16/06:00pm 25.4 23.5 15.7 55 5.9 E 20 28 11 15 1008.4 1008.4 0.0
16/05:30pm 27.1 25.8 17.3 55 6.1 ESE 20 30 11 16 1007.8 1007.8 0.0
16/05:00pm 26.7 25.0 16.3 53 6.4 ESE 20 30 11 16 1007.5 1007.5 0.0
16/04:30pm 27.7 27.0 17.3 53 6.5 ESE 17 28 9 15 1007.4 1007.4 0.0
16/04:00pm 27.4 26.0 17.0 53 6.5 ESE 20 30 11 16 1007.4 1007.4 0.0
16/03:30pm 27.8 26.4 17.9 54 6.3 ESE 22 32 12 17 1007.3 1007.3 0.0
16/03:00pm 25.5 24.2 16.9 59 5.3 SE 19 26 10 14 1007.4 1007.4 0.0
16/02:30pm 27.5 26.3 17.4 54 6.3 SE 20 32 11 17 1007.3 1007.3 0.0
16/02:00pm 28.3 27.6 18.7 56 6.2 SE 20 30 11 16 1007.3 1007.3 0.0
16/01:30pm 28.0 27.1 18.1 55 6.3 SE 20 30 11 16 1007.5 1007.5 0.0
16/01:00pm 28.3 27.4 19.0 57 6.0 SE 22 32 12 17 1007.6 1007.6 0.0
16/12:30pm 27.8 26.0 17.9 54 6.3 SE 24 32 13 17 1007.5 1007.5 0.0
16/12:00pm 28.4 26.5 19.3 57 5.9 SSE 28 37 15 20 1007.5 1007.5 0.0
16/11:30am 28.2 26.8 18.9 57 6.0 SE 24 33 13 18 1007.4 1007.4 0.0
16/11:00am 29.3 29.4 19.9 57 6.2 SSE 19 28 10 15 1007.2 1007.2 0.0
16/10:30am 28.7 29.8 20.4 60 5.5 SW 15 24 8 13 1007.1 1007.1 0.0
16/10:00am 29.0 31.0 21.5 64 5.0 W 13 20 7 11 1006.9 1006.9 0.0
16/09:30am 27.9 29.7 21.2 67 4.5 WSW 13 19 7 10 1006.9 1006.9 0.0
16/09:00am 27.0 30.1 21.5 72 3.7 SSE 7 11 4 6 1006.8 1006.8 5.8
16/08:30am 25.6 28.5 21.1 76 3.0 SE 7 9 4 5 1006.6 1006.6 5.6
16/08:00am 24.1 26.6 20.2 79 2.5 SE 7 9 4 5 1006.5 1006.5 5.6
16/07:30am 22.9 26.8 20.4 86 1.6 CALM 0 0 0 0 1006.2 1006.2 5.6
16/07:00am 21.9 26.1 20.9 94 0.7 CALM 0 0 0 0 1005.7 1005.7 5.6
16/06:30am 20.6 23.7 19.6 94 0.6 NNW 2 6 1 3 1005.3 1005.3 5.6
16/06:00am 20.3 22.5 19.3 94 0.6 NNW 6 9 3 5 1005.3 1005.3 5.6
16/05:30am 20.3 22.8 19.0 92 0.8 NNE 4 7 2 4 1004.7 1004.7 5.6
16/05:00am 20.6 23.8 18.9 90 1.1 CALM 0 0 0 0 1004.4 1004.4 5.6
16/04:30am 21.5 24.5 20.0 91 1.0 ENE 4 9 2 5 1004.1 1004.1 5.6
16/04:00am 21.7 24.2 20.2 91 1.0 NE 7 11 4 6 1004.4 1004.4 5.6

Other formats

Comma delimited format used in spreadsheet applications
http://www.bom.gov.au/fwo/IDN60801/IDN60801.94572.axf

JavaScript Object Notation format (JSON) in row-major order
http://www.bom.gov.au/fwo/IDN60801/IDN60801.94572.json

Data quality

Most of these data are generated automatically and are frequently updated. Quality checks on data are not normally performed. It is possible for incorrect values to appear. Refer to information at About Latest Weather Observations and please check the disclaimer before using these data.